Time;durP1;ratioP1;P1;durP2;ratioP2;P2;SDS_P1;SDS_P2;PMS_P1;PMS_P2;Temp;Humidity;BMP_temperature;BMP_pressure;BME280_temperature;BME280_humidity;BME280_pressure;Samples;Min_cycle;Max_cycle;Signal;HPM_P1;HPM_P2
2021/04/02 00:00:17;;;;;;;;;;;;;;;4.01;83.64;102748.34;5071597;28;19912;-74
2021/04/02 00:02:42;;;;;;;;;;;;;;;3.98;83.84;102740.50;5053586;28;19935;-74
2021/04/02 00:05:08;;;;;;;;;;;;;;;3.96;83.78;102749.66;5054003;28;20372;-73
2021/04/02 00:07:33;;;;;;;;;;;;;;;3.94;83.49;102753.72;5070459;28;19988;-74
2021/04/02 00:09:58;;;;;;;;;;;;;;;3.95;84.11;102753.84;5071396;28;19919;-72
2021/04/02 00:12:23;;;;;;;;;;;;;;;3.92;84.17;102743.44;5071212;28;19920;-73
2021/04/02 00:14:48;;;;;;;;;;;;;;;3.96;84.07;102754.72;5054350;28;19912;-74
2021/04/02 00:17:14;;;;;;;;;;;;;;;3.96;83.67;102744.56;5071328;28;19912;-74
2021/04/02 00:19:39;;;;;;;;;;;;;;;3.89;83.70;102742.25;5071430;28;19919;-74
2021/04/02 00:22:04;;;;;;;;;;;;;;;3.90;83.68;102754.22;5071013;28;20370;-74
2021/04/02 00:24:29;;;;;;;;;;;;;;;3.90;83.31;102754.22;5071338;28;19912;-73
2021/04/02 00:26:55;;;;;;;;;;;;;;;3.94;83.58;102758.81;5071174;28;19913;-72
2021/04/02 00:29:20;;;;;;;;;;;;;;;3.82;83.54;102751.06;5071205;28;19916;-74
2021/04/02 00:31:46;;;;;;;;;;;;;;;3.84;83.79;102751.19;5070749;28;20351;-72
2021/04/02 00:34:11;;;;;;;;;;;;;;;3.83;83.73;102751.94;5071091;28;19958;-73
2021/04/02 00:36:36;;;;;;;;;;;;;;;3.84;83.31;102751.19;5053026;28;20328;-74
2021/04/02 00:39:02;;;;;;;;;;;;;;;3.82;83.48;102755.25;5053050;28;19943;-74
2021/04/02 00:41:28;;;;;;;;;;;;;;;3.82;84.02;102751.06;5070512;28;19956;-74
2021/04/02 00:43:53;;;;;;;;;;;;;;;3.72;83.84;102751.97;5071645;28;19951;-74
2021/04/02 00:46:19;;;;;;;;;;;;;;;3.67;83.97;102758.34;5070930;28;19966;-73
2021/04/02 00:48:45;;;;;;;;;;;;;;;3.59;84.09;102750.84;5071026;28;20325;-74
2021/04/02 00:51:12;;;;;;;;;;;;;;;3.54;84.28;102747.91;5068900;28;19922;-74
2021/04/02 00:53:39;;;;;;;;;;;;;;;3.51;84.34;102751.84;5070636;28;19919;-74
2021/04/02 00:56:05;;;;;;;;;;;;;;;3.49;84.30;102744.09;5066689;28;19916;-74
2021/04/02 00:58:32;;;;;;;;;;;;;;;3.41;84.55;102745.13;5044686;28;20373;-74
2021/04/02 01:00:57;;;;;;;;;;;;;;;3.42;84.78;102745.25;5066961;28;19971;-74
2021/04/02 01:03:22;;;;;;;;;;;;;;;3.49;85.18;102748.28;5066930;28;20148;-74
2021/04/02 01:05:49;;;;;;;;;;;;;;;3.55;85.06;102744.59;5051425;28;19912;-74
2021/04/02 01:08:19;;;;;;;;;;;;;;;3.52;85.09;102748.53;5069651;28;19923;-74
2021/04/02 01:10:44;;;;;;;;;;;;;;;3.41;85.11;102740.94;5066278;28;19916;-74
2021/04/02 01:13:12;;;;;;;;;;;;;;;3.32;85.01;102741.84;5070839;28;20282;-74
2021/04/02 01:15:40;;;;;;;;;;;;;;;3.25;85.38;102742.97;5053072;28;19912;-74
2021/04/02 01:18:11;;;;;;;;;;;;;;;3.20;85.66;102741.69;5070552;28;20324;-73
2021/04/02 01:20:38;;;;;;;;;;;;;;;3.16;86.14;102736.22;5068747;28;19943;-74
2021/04/02 01:23:07;;;;;;;;;;;;;;;3.12;86.26;102743.59;5070453;28;19912;-74
2021/04/02 01:25:44;;;;;;;;;;;;;;;3.13;86.02;102736.84;5052412;28;20393;-73
2021/04/02 01:28:33;;;;;;;;;;;;;;;3.12;85.69;102743.59;5051264;28;19962;-74
2021/04/02 01:31:00;;;;;;;;;;;;;;;3.12;86.01;102751.22;5051809;28;19912;-74
2021/04/02 01:33:25;;;;;;;;;;;;;;;3.19;85.82;102747.53;5069017;28;19924;-73
2021/04/02 01:35:53;;;;;;;;;;;;;;;3.17;85.65;102748.16;5068754;28;19916;-74
2021/04/02 01:38:25;;;;;;;;;;;;;;;3.22;86.18;102746.88;5070525;28;20290;-73
2021/04/02 01:40:52;;;;;;;;;;;;;;;3.23;86.49;102743.59;5069860;28;19948;-74
2021/04/02 01:43:19;;;;;;;;;;;;;;;3.23;86.50;102743.59;5069361;28;19912;-74
2021/04/02 01:45:45;;;;;;;;;;;;;;;3.33;86.69;102751.22;5070811;28;19922;-74
2021/04/02 01:48:13;;;;;;;;;;;;;;;3.32;86.61;102741.84;5070959;28;20393;-73
2021/04/02 01:50:39;;;;;;;;;;;;;;;3.32;86.52;102744.38;5072678;28;20308;-73
2021/04/02 01:53:07;;;;;;;;;;;;;;;3.39;86.52;102746.66;5073978;28;19928;-73
2021/04/02 01:55:32;;;;;;;;;;;;;;;3.31;86.38;102747.69;5056476;28;20324;-74
2021/04/02 01:57:57;;;;;;;;;;;;;;;3.28;86.25;102744.88;5055940;28;19912;-72
2021/04/02 02:00:31;;;;;;;;;;;;;;;3.20;86.14;102744.22;5074037;28;19939;-72
2021/04/02 02:02:58;;;;;;;;;;;;;;;3.17;86.43;102753.25;5074238;28;19944;-74
2021/04/02 02:05:24;;;;;;;;;;;;;;;3.12;86.45;102750.31;5056109;28;19916;-73
2021/04/02 02:07:50;;;;;;;;;;;;;;;3.07;86.39;102752.47;5074040;28;20328;-74
2021/04/02 02:10:16;;;;;;;;;;;;;;;3.05;86.56;102754.00;5055895;28;19912;-74
2021/04/02 02:12:43;;;;;;;;;;;;;;;3.08;86.54;102763.53;5072273;28;19916;-74
2021/04/02 02:15:12;;;;;;;;;;;;;;;3.07;86.62;102749.03;5074512;28;19913;-74
2021/04/02 02:17:39;;;;;;;;;;;;;;;3.02;86.54;102745.22;5073572;28;19916;-74
2021/04/02 02:20:09;;;;;;;;;;;;;;;2.99;86.74;102750.94;5055578;28;20011;-73
2021/04/02 02:22:34;;;;;;;;;;;;;;;3.00;86.82;102747.66;5073417;28;19962;-74
2021/04/02 02:25:01;;;;;;;;;;;;;;;2.96;87.46;102752.34;5073662;28;19968;-74
2021/04/02 02:27:26;;;;;;;;;;;;;;;3.08;87.06;102746.63;5073511;28;19919;-74
2021/04/02 02:29:52;;;;;;;;;;;;;;;3.05;87.17;102750.56;5055784;28;19920;-74
2021/04/02 02:32:17;;;;;;;;;;;;;;;3.02;87.36;102748.66;5055282;28;19943;-72
2021/04/02 02:34:42;;;;;;;;;;;;;;;3.01;87.20;102751.06;5055723;28;19916;-74
2021/04/02 02:37:08;;;;;;;;;;;;;;;3.13;87.53;102758.06;5073127;28;19912;-74
2021/04/02 02:39:33;;;;;;;;;;;;;;;3.11;87.80;102749.44;5055370;28;20306;-71
2021/04/02 02:42:02;;;;;;;;;;;;;;;3.12;87.95;102745.25;5073160;28;19913;-74
2021/04/02 02:44:27;;;;;;;;;;;;;;;3.19;88.15;102746.63;5072739;28;19962;-74
2021/04/02 02:46:52;;;;;;;;;;;;;;;3.28;88.25;102747.44;5055282;28;19916;-73
2021/04/02 02:49:19;;;;;;;;;;;;;;;3.34;88.18;102743.75;5073040;28;19912;-74
2021/04/02 02:51:45;;;;;;;;;;;;;;;3.31;88.01;102734.97;5054801;28;20529;-74
2021/04/02 02:54:15;;;;;;;;;;;;;;;3.32;88.21;102741.84;5054746;28;19912;-74
2021/04/02 02:56:42;;;;;;;;;;;;;;;3.32;88.45;102742.72;5067815;28;20289;-75
2021/04/02 02:59:09;;;;;;;;;;;;;;;3.43;88.33;102751.22;5049896;28;19913;-73
2021/04/02 03:01:37;;;;;;;;;;;;;;;3.41;88.48;102740.03;5053141;28;19920;-74
2021/04/02 03:04:02;;;;;;;;;;;;;;;3.49;88.43;102739.03;5070678;28;19948;-74
2021/04/02 03:06:30;;;;;;;;;;;;;;;3.48;88.28;102738.91;5054182;28;19962;-75
2021/04/02 03:08:57;;;;;;;;;;;;;;;3.51;88.66;102737.50;5072846;28;19920;-73
2021/04/02 03:11:22;;;;;;;;;;;;;;;3.58;88.70;102738.91;5054482;28;20374;-74
2021/04/02 03:13:51;;;;;;;;;;;;;;;3.63;88.60;102742.72;5071889;28;20045;-74
2021/04/02 03:16:18;;;;;;;;;;;;;;;3.64;88.43;102740.28;5072694;28;19912;-74
2021/04/02 03:18:46;;;;;;;;;;;;;;;3.67;88.26;102734.56;5072483;28;20002;-74
2021/04/02 03:21:11;;;;;;;;;;;;;;;3.71;88.17;102734.94;5054430;28;19912;-74
2021/04/02 03:23:37;;;;;;;;;;;;;;;3.81;88.13;102728.94;5054729;28;20400;-74
2021/04/02 03:26:03;;;;;;;;;;;;;;;3.84;87.86;102733.38;5071139;28;19919;-74
2021/04/02 03:28:29;;;;;;;;;;;;;;;3.84;87.96;102725.75;5072668;28;20384;-74
2021/04/02 03:30:54;;;;;;;;;;;;;;;3.89;87.71;102727.91;5071847;28;20320;-74
2021/04/02 03:33:22;;;;;;;;;;;;;;;3.89;87.57;102725.34;5072282;28;20291;-74
2021/04/02 03:35:48;;;;;;;;;;;;;;;3.88;87.56;102736.28;5071308;28;20384;-73
2021/04/02 03:38:14;;;;;;;;;;;;;;;3.84;87.50;102730.84;5071185;28;20007;-75
2021/04/02 03:40:39;;;;;;;;;;;;;;;3.87;87.77;102733.63;5054079;28;19959;-75
2021/04/02 03:43:05;;;;;;;;;;;;;;;3.90;87.56;102721.16;5072258;28;20001;-74
2021/04/02 03:45:31;;;;;;;;;;;;;;;3.89;87.56;102727.00;5072796;28;19919;-74
2021/04/02 03:47:56;;;;;;;;;;;;;;;3.93;87.52;102723.97;5070620;28;19913;-74
2021/04/02 03:50:23;;;;;;;;;;;;;;;3.91;87.21;102738.22;5071679;28;19912;-72
2021/04/02 03:53:15;;;;;;;;;;;;;;;3.91;87.33;102731.50;5071900;28;20301;-74
2021/04/02 03:55:41;;;;;;;;;;;;;;;3.88;87.06;102725.22;5067266;28;19971;-75
2021/04/02 03:58:08;;;;;;;;;;;;;;;3.88;87.11;102730.31;5072149;28;19912;-75
2021/04/02 04:00:37;;;;;;;;;;;;;;;3.93;87.06;102729.06;5071368;28;19916;-74
2021/04/02 04:03:03;;;;;;;;;;;;;;;3.90;87.21;102718.63;5070401;28;19912;-74
2021/04/02 04:05:28;;;;;;;;;;;;;;;3.92;86.84;102724.75;5053603;28;19954;-75
2021/04/02 04:07:54;;;;;;;;;;;;;;;3.98;86.94;102715.06;5071533;28;19922;-74
2021/04/02 04:10:20;;;;;;;;;;;;;;;4.04;86.58;102718.09;5070965;28;19912;-75
2021/04/02 04:12:48;;;;;;;;;;;;;;;4.07;86.42;102728.50;5061099;28;19932;-74
2021/04/02 04:15:14;;;;;;;;;;;;;;;4.02;85.97;102729.78;5061679;28;19943;-74
2021/04/02 04:17:40;;;;;;;;;;;;;;;4.04;86.24;102730.81;5070602;28;19975;-74
2021/04/02 04:20:06;;;;;;;;;;;;;;;4.03;86.52;102727.38;5071338;28;19912;-75
2021/04/02 04:22:32;;;;;;;;;;;;;;;4.03;86.32;102729.03;5069747;28;19912;-75
2021/04/02 04:24:58;;;;;;;;;;;;;;;4.11;86.37;102737.25;5071302;28;19920;-74
2021/04/02 04:27:24;;;;;;;;;;;;;;;4.14;86.00;102740.03;5053207;28;19916;-74
2021/04/02 04:29:51;;;;;;;;;;;;;;;4.14;86.28;102737.50;5069908;28;20010;-75
2021/04/02 04:32:19;;;;;;;;;;;;;;;4.12;86.15;102734.84;5070614;28;20058;-74
2021/04/02 04:34:45;;;;;;;;;;;;;;;4.15;86.52;102735.09;5069814;28;19920;-73
2021/04/02 04:37:11;;;;;;;;;;;;;;;4.21;85.94;102729.59;5071165;28;19957;-74
2021/04/02 04:39:36;;;;;;;;;;;;;;;4.19;85.88;102732.00;5069767;28;19912;-74
2021/04/02 04:42:02;;;;;;;;;;;;;;;4.22;85.64;102734.78;5052823;28;19919;-73
2021/04/02 04:44:28;;;;;;;;;;;;;;;4.26;85.44;102731.75;5070448;28;19940;-75
2021/04/02 04:46:54;;;;;;;;;;;;;;;4.24;85.21;102728.22;5071044;28;19916;-74
2021/04/02 04:49:19;;;;;;;;;;;;;;;4.22;85.16;102736.44;5070964;28;19912;-75
2021/04/02 04:51:46;;;;;;;;;;;;;;;4.22;85.20;102739.88;5070549;28;19916;-74
2021/04/02 04:54:12;;;;;;;;;;;;;;;4.17;85.12;102743.72;5070053;28;19912;-74
2021/04/02 04:56:38;;;;;;;;;;;;;;;4.13;85.16;102739.16;5042505;28;19965;-74
2021/04/02 04:59:05;;;;;;;;;;;;;;;4.18;85.52;102745.50;5047600;28;19920;-72
2021/04/02 05:01:34;;;;;;;;;;;;;;;4.12;85.00;102736.50;5069036;28;20293;-74
2021/04/02 05:04:01;;;;;;;;;;;;;;;4.09;85.08;102742.22;5051171;28;19958;-74
2021/04/02 05:06:27;;;;;;;;;;;;;;;4.10;85.17;102745.66;5069675;28;20353;-74
2021/04/02 05:08:53;;;;;;;;;;;;;;;4.09;84.89;102742.22;5071242;28;19952;-75
2021/04/02 05:11:20;;;;;;;;;;;;;;;4.07;84.80;102747.19;5070908;28;19912;-75
2021/04/02 05:13:48;;;;;;;;;;;;;;;4.04;85.05;102744.41;5071843;28;20447;-74
2021/04/02 05:16:13;;;;;;;;;;;;;;;4.01;85.32;102754.34;5071477;28;19920;-74
2021/04/02 05:18:39;;;;;;;;;;;;;;;4.04;85.13;102757.13;5053172;28;19912;-74
2021/04/02 05:21:05;;;;;;;;;;;;;;;4.10;85.38;102748.19;5069437;28;19951;-74
2021/04/02 05:23:30;;;;;;;;;;;;;;;4.06;85.07;102749.63;5069137;28;19912;-74
2021/04/02 05:25:55;;;;;;;;;;;;;;;4.03;84.72;102751.91;5071179;28;19912;-74
2021/04/02 05:28:20;;;;;;;;;;;;;;;4.07;84.73;102746.31;5053175;28;19927;-74
2021/04/02 05:30:46;;;;;;;;;;;;;;;4.06;84.82;102747.97;5052728;28;19919;-74
2021/04/02 05:33:12;;;;;;;;;;;;;;;4.07;84.66;102746.31;5070873;28;19916;-72
2021/04/02 05:35:37;;;;;;;;;;;;;;;4.10;84.63;102749.09;5052989;28;20297;-75
2021/04/02 05:38:03;;;;;;;;;;;;;;;4.09;84.24;102752.41;5053050;28;19920;-75
2021/04/02 05:40:28;;;;;;;;;;;;;;;4.10;84.23;102753.28;5070619;28;19912;-74
2021/04/02 05:43:12;;;;;;;;;;;;;;;4.11;84.58;102750.88;5071070;28;19917;-74
2021/04/02 05:45:38;;;;;;;;;;;;;;;4.14;84.71;102755.31;5070740;28;19935;-74
2021/04/02 05:48:04;;;;;;;;;;;;;;;4.15;84.49;102750.34;5053203;28;19916;-74
2021/04/02 05:50:30;;;;;;;;;;;;;;;4.18;84.44;102747.16;5069335;28;19965;-74
2021/04/02 05:52:57;;;;;;;;;;;;;;;4.22;84.35;102757.69;5070887;28;19922;-74
2021/04/02 05:55:24;;;;;;;;;;;;;;;4.28;83.90;102762.41;5052572;28;19919;-74
2021/04/02 05:57:50;;;;;;;;;;;;;;;4.51;83.58;102754.91;5070788;28;19912;-73
2021/04/02 06:00:16;;;;;;;;;;;;;;;4.49;83.08;102763.19;5070642;28;20293;-73
2021/04/02 06:02:41;;;;;;;;;;;;;;;4.58;83.25;102751.22;5069463;28;19917;-75
2021/04/02 06:05:08;;;;;;;;;;;;;;;4.57;82.81;102757.97;5052777;28;19912;-74
2021/04/02 06:07:33;;;;;;;;;;;;;;;4.68;82.16;102753.69;5070579;28;19912;-74
2021/04/02 06:09:59;;;;;;;;;;;;;;;4.71;82.57;102753.03;5070388;28;19920;-74
2021/04/02 06:12:24;;;;;;;;;;;;;;;4.71;82.65;102751.38;5070149;28;19923;-75
2021/04/02 06:14:50;;;;;;;;;;;;;;;4.75;82.08;102761.03;5070589;28;19924;-74
2021/04/02 06:17:15;;;;;;;;;;;;;;;4.79;81.87;102757.06;5067824;28;19955;-74
2021/04/02 06:19:40;;;;;;;;;;;;;;;4.89;81.85;102765.56;5052473;28;20282;-74
2021/04/02 06:22:06;;;;;;;;;;;;;;;4.93;81.25;102759.94;5052250;28;19912;-73
2021/04/02 06:24:42;;;;;;;;;;;;;;;4.92;81.01;102758.16;5051743;28;19919;-74
2021/04/02 06:27:08;;;;;;;;;;;;;;;5.04;80.91;102764.94;5051650;28;19912;-74
2021/04/02 06:29:36;;;;;;;;;;;;;;;5.08;81.18;102769.50;5065774;28;19988;-74
2021/04/02 06:32:01;;;;;;;;;;;;;;;5.04;80.99;102765.84;5064372;28;19917;-74
2021/04/02 06:34:27;;;;;;;;;;;;;;;5.12;80.81;102771.50;5067820;28;19921;-74
2021/04/02 06:36:58;;;;;;;;;;;;;;;5.24;80.67;102769.91;5072553;28;19912;-74
2021/04/02 06:39:23;;;;;;;;;;;;;;;5.25;80.91;102774.25;5049206;28;19975;-73
2021/04/02 06:41:52;;;;;;;;;;;;;;;5.26;79.25;102778.56;5052104;28;20397;-71
2021/04/02 06:44:18;;;;;;;;;;;;;;;5.31;79.32;102782.34;5071466;28;19912;-72
2021/04/02 06:46:43;;;;;;;;;;;;;;;5.33;79.55;102783.34;5073166;28;20344;-73
2021/04/02 06:49:08;;;;;;;;;;;;;;;5.39;79.55;102780.38;5049500;28;20016;-74
2021/04/02 06:51:35;;;;;;;;;;;;;;;5.38;78.42;102776.94;5052828;28;20015;-73
2021/04/02 06:54:01;;;;;;;;;;;;;;;5.46;79.27;102775.84;5071650;28;19938;-74
2021/04/02 06:56:27;;;;;;;;;;;;;;;5.44;78.88;102779.94;5070957;28;20382;-74
2021/04/02 06:58:52;;;;;;;;;;;;;;;5.51;79.58;102786.38;5063068;28;19951;-74
2021/04/02 07:01:18;;;;;;;;;;;;;;;5.57;79.06;102787.75;5062805;28;19999;-71
2021/04/02 07:03:45;;;;;;;;;;;;;;;5.62;78.76;102781.31;5069727;28;19946;-74
2021/04/02 07:06:11;;;;;;;;;;;;;;;5.73;77.85;102791.41;5070186;28;19916;-74
2021/04/02 07:08:40;;;;;;;;;;;;;;;5.75;77.53;102790.75;5054828;28;20297;-74
2021/04/02 07:11:06;;;;;;;;;;;;;;;5.80;77.34;102791.09;5071796;28;19912;-74
2021/04/02 07:13:33;;;;;;;;;;;;;;;5.89;77.25;102791.81;5054473;28;20427;-74
2021/04/02 07:15:59;;;;;;;;;;;;;;;6.01;76.44;102787.63;5072414;28;19974;-75
2021/04/02 07:18:24;;;;;;;;;;;;;;;6.07;75.50;102792.28;5072573;28;20328;-74
2021/04/02 07:20:50;;;;;;;;;;;;;;;6.12;75.21;102789.28;5072100;28;19913;-75
2021/04/02 07:23:15;;;;;;;;;;;;;;;6.15;75.11;102793.72;5054358;28;19973;-74
2021/04/02 07:25:41;;;;;;;;;;;;;;;6.14;74.13;102797.94;5054226;28;19913;-74
2021/04/02 07:28:06;;;;;;;;;;;;;;;6.30;75.72;102799.06;5048035;28;19912;-74
2021/04/02 07:30:32;;;;;;;;;;;;;;;6.33;73.62;102797.59;5050115;28;19958;-74
2021/04/02 07:32:58;;;;;;;;;;;;;;;6.29;72.92;102805.81;5071941;28;19916;-74
2021/04/02 07:35:23;;;;;;;;;;;;;;;6.34;73.38;102809.59;5070851;28;19932;-74
2021/04/02 07:37:54;;;;;;;;;;;;;;;6.39;72.03;102807.38;5054250;28;19912;-74
2021/04/02 07:40:37;;;;;;;;;;;;;;;6.43;72.43;102809.34;5053782;28;19969;-72
2021/04/02 07:43:07;;;;;;;;;;;;;;;6.41;71.09;102816.91;5070807;28;20022;-74
2021/04/02 07:45:35;;;;;;;;;;;;;;;6.40;70.84;102812.59;5068206;28;19916;-74
2021/04/02 07:48:13;;;;;;;;;;;;;;;6.37;70.95;102820.03;5067467;28;19912;-74
2021/04/02 07:50:56;;;;;;;;;;;;;;;6.36;70.83;102820.78;5046376;28;20166;-74
2021/04/02 07:53:27;;;;;;;;;;;;;;;6.31;70.91;102834.00;5060090;28;20610;-74
2021/04/02 07:55:54;;;;;;;;;;;;;;;6.34;70.42;102831.69;5052819;28;19936;-75
2021/04/02 07:58:21;;;;;;;;;;;;;;;6.31;70.00;102841.66;5071174;28;19912;-74
2021/04/02 08:00:47;;;;;;;;;;;;;;;6.35;70.67;102834.34;5071347;28;20423;-74
2021/04/02 08:03:16;;;;;;;;;;;;;;;6.35;69.90;102831.78;5070269;28;20297;-74
2021/04/02 08:05:58;;;;;;;;;;;;;;;6.51;70.20;102828.69;5054019;28;19913;-74
2021/04/02 08:08:23;;;;;;;;;;;;;;;6.61;70.32;102826.00;5053441;28;20572;-75
2021/04/02 08:11:05;;;;;;;;;;;;;;;6.67;69.79;102834.09;5071468;28;19924;-75
2021/04/02 08:13:44;;;;;;;;;;;;;;;6.76;69.23;102834.75;5071296;28;19920;-74
2021/04/02 08:16:28;;;;;;;;;;;;;;;6.76;68.99;102832.19;5071565;28;19919;-75
2021/04/02 08:19:00;;;;;;;;;;;;;;;6.90;67.56;102834.84;5071196;28;19923;-73
2021/04/02 08:21:26;;;;;;;;;;;;;;;6.96;68.01;102836.16;5070992;28;19919;-75
2021/04/02 08:23:52;;;;;;;;;;;;;;;6.99;67.60;102831.25;5053135;28;19913;-74
2021/04/02 08:26:17;;;;;;;;;;;;;;;7.00;69.19;102847.47;5069752;28;20022;-74
2021/04/02 08:28:42;;;;;;;;;;;;;;;6.92;68.32;102843.50;5071057;28;19952;-74
2021/04/02 08:31:07;;;;;;;;;;;;;;;6.96;68.24;102842.94;5070580;28;19981;-73
2021/04/02 08:33:33;;;;;;;;;;;;;;;6.94;69.01;102852.16;5071024;28;20424;-74
2021/04/02 08:35:58;;;;;;;;;;;;;;;6.79;69.03;102847.72;5071020;28;19919;-74
2021/04/02 08:38:23;;;;;;;;;;;;;;;6.81;67.13;102853.84;5052852;28;20006;-74
2021/04/02 08:40:50;;;;;;;;;;;;;;;6.97;68.15;102847.28;5070517;28;19913;-75
2021/04/02 08:43:18;;;;;;;;;;;;;;;6.95;67.72;102854.81;5070793;28;19913;-74
2021/04/02 08:45:44;;;;;;;;;;;;;;;6.84;68.18;102854.09;5052711;28;20416;-74
2021/04/02 08:48:21;;;;;;;;;;;;;;;6.99;67.69;102845.69;5070767;28;19913;-75
2021/04/02 08:50:47;;;;;;;;;;;;;;;7.01;67.32;102849.25;5038084;28;19930;-73
2021/04/02 08:53:13;;;;;;;;;;;;;;;6.94;66.59;102847.06;5048555;28;19920;-74
2021/04/02 08:55:42;;;;;;;;;;;;;;;6.93;66.89;102843.63;5061071;28;19920;-72
2021/04/02 08:58:08;;;;;;;;;;;;;;;7.22;67.25;102840.53;5047051;28;19915;-75
2021/04/02 09:00:33;;;;;;;;;;;;;;;7.30;65.14;102838.50;5044605;28;19916;-73
2021/04/02 09:02:59;;;;;;;;;;;;;;;7.27;65.14;102835.72;5064141;28;19955;-75
2021/04/02 09:05:24;;;;;;;;;;;;;;;7.35;65.97;102837.13;5050280;28;19944;-74
2021/04/02 09:07:56;;;;;;;;;;;;;;;7.32;65.11;102842.94;5069833;28;19912;-75
2021/04/02 09:10:21;;;;;;;;;;;;;;;7.42;65.15;102847.88;5052293;28;19916;-72
2021/04/02 09:12:48;;;;;;;;;;;;;;;7.39;65.08;102849.34;5052368;28;19916;-74
2021/04/02 09:15:21;;;;;;;;;;;;;;;7.44;65.31;102854.00;5070378;28;19912;-75
2021/04/02 09:17:46;;;;;;;;;;;;;;;7.44;65.24;102859.09;5069335;28;19912;-74
2021/04/02 09:20:13;;;;;;;;;;;;;;;7.52;66.92;102863.88;5052324;28;19923;-74
2021/04/02 09:22:38;;;;;;;;;;;;;;;7.38;66.25;102858.69;5070271;28;20380;-74
2021/04/02 09:25:03;;;;;;;;;;;;;;;7.20;65.76;102857.44;5070316;28;19912;-75
2021/04/02 09:27:36;;;;;;;;;;;;;;;7.24;65.69;102854.31;5070447;28;19966;-72
2021/04/02 09:30:05;;;;;;;;;;;;;;;7.26;66.61;102851.84;5070431;28;19916;-75
2021/04/02 09:32:30;;;;;;;;;;;;;;;7.33;64.89;102849.81;5069985;28;19917;-74
2021/04/02 09:35:00;;;;;;;;;;;;;;;7.37;66.30;102849.25;5052082;28;20395;-74
2021/04/02 09:37:26;;;;;;;;;;;;;;;7.26;65.32;102857.84;5069769;28;19912;-74
2021/04/02 09:39:56;;;;;;;;;;;;;;;7.26;66.33;102847.63;5068507;28;19912;-74
2021/04/02 09:42:22;;;;;;;;;;;;;;;7.42;66.35;102847.88;5069645;28;19912;-74
2021/04/02 09:44:47;;;;;;;;;;;;;;;7.43;63.51;102847.09;5061117;28;20387;-74
2021/04/02 09:47:13;;;;;;;;;;;;;;;7.33;64.75;102846.38;5063424;28;20010;-74
2021/04/02 09:49:39;;;;;;;;;;;;;;;7.35;66.61;102852.47;5060962;28;19958;-74
2021/04/02 09:52:05;;;;;;;;;;;;;;;7.23;64.69;102855.09;5057336;28;19969;-74
2021/04/02 09:54:31;;;;;;;;;;;;;;;7.26;65.81;102842.53;5062898;28;19920;-75
2021/04/02 09:56:57;;;;;;;;;;;;;;;7.37;67.15;102848.34;5064471;28;20377;-73
2021/04/02 09:59:22;;;;;;;;;;;;;;;7.54;65.84;102858.09;5065516;28;19995;-74
2021/04/02 10:01:48;;;;;;;;;;;;;;;7.58;64.76;102859.19;5063327;28;20046;-74
2021/04/02 10:04:14;;;;;;;;;;;;;;;7.66;63.86;102855.47;5064620;28;19919;-74
2021/04/02 10:06:40;;;;;;;;;;;;;;;7.65;63.24;102843.44;5067723;28;20051;-74
2021/04/02 10:09:06;;;;;;;;;;;;;;;7.69;64.57;102858.22;5071633;28;19920;-74
2021/04/02 10:11:33;;;;;;;;;;;;;;;7.70;65.79;102857.44;5055382;28;19959;-75
2021/04/02 10:13:58;;;;;;;;;;;;;;;7.73;64.68;102855.97;5055887;28;20412;-75
2021/04/02 10:16:23;;;;;;;;;;;;;;;7.75;64.25;102856.06;5055698;28;19916;-74
2021/04/02 10:18:50;;;;;;;;;;;;;;;7.84;62.90;102855.81;5073623;28;19912;-74
2021/04/02 10:21:16;;;;;;;;;;;;;;;7.80;63.89;102847.03;5055250;28;20408;-74
2021/04/02 10:23:41;;;;;;;;;;;;;;;7.76;64.07;102855.28;5055432;28;19913;-75
2021/04/02 10:26:06;;;;;;;;;;;;;;;7.84;63.50;102859.28;5055840;28;21249;-74
2021/04/02 10:28:32;;;;;;;;;;;;;;;7.81;63.48;102853.94;5073217;28;20282;-74
2021/04/02 10:30:58;;;;;;;;;;;;;;;8.06;65.13;102859.88;5072866;28;19912;-74
2021/04/02 10:33:23;;;;;;;;;;;;;;;8.15;64.18;102858.75;5073517;28;19916;-75
2021/04/02 10:35:48;;;;;;;;;;;;;;;8.14;62.77;102856.97;5073343;28;20025;-74
2021/04/02 10:38:14;;;;;;;;;;;;;;;8.02;62.69;102852.78;5055235;28;19938;-75
2021/04/02 10:40:40;;;;;;;;;;;;;;;7.95;62.32;102868.53;5073028;28;19999;-74
2021/04/02 10:43:05;;;;;;;;;;;;;;;8.07;64.06;102861.66;5073111;28;19963;-75
2021/04/02 10:45:31;;;;;;;;;;;;;;;8.17;62.21;102857.16;5073132;28;20761;-74
2021/04/02 10:47:56;;;;;;;;;;;;;;;8.35;62.02;102848.13;5073015;28;20509;-75
2021/04/02 10:50:23;;;;;;;;;;;;;;;8.51;60.63;102853.47;5072660;28;19935;-74
2021/04/02 10:52:48;;;;;;;;;;;;;;;8.45;60.97;102847.03;5071467;28;19916;-74
2021/04/02 10:55:13;;;;;;;;;;;;;;;8.49;60.90;102844.81;5072560;28;19995;-75
2021/04/02 10:57:39;;;;;;;;;;;;;;;8.69;60.47;102841.81;5066041;28;20026;-75
2021/04/02 11:00:06;;;;;;;;;;;;;;;8.69;59.24;102844.38;5071188;28;19912;-75
2021/04/02 11:02:31;;;;;;;;;;;;;;;8.81;62.24;102859.66;5066305;28;20359;-74
2021/04/02 11:04:58;;;;;;;;;;;;;;;8.70;60.68;102861.53;5053070;28;19916;-75
2021/04/02 11:07:23;;;;;;;;;;;;;;;8.63;61.29;102855.91;5053342;28;20011;-75
2021/04/02 11:09:48;;;;;;;;;;;;;;;8.59;60.70;102859.97;5070955;28;20386;-74
2021/04/02 11:12:14;;;;;;;;;;;;;;;8.43;61.39;102857.19;5069718;28;19957;-76
2021/04/02 11:14:39;;;;;;;;;;;;;;;8.32;60.26;102853.91;5071820;28;19919;-75
2021/04/02 11:17:04;;;;;;;;;;;;;;;8.37;61.48;102856.81;5054614;28;20332;-74
2021/04/02 11:19:29;;;;;;;;;;;;;;;8.44;60.53;102851.28;5050198;28;19920;-74
2021/04/02 11:21:55;;;;;;;;;;;;;;;8.69;61.08;102856.31;5048104;28;19919;-75
2021/04/02 11:24:20;;;;;;;;;;;;;;;8.72;60.78;102846.25;5054089;28;19918;-75
2021/04/02 11:26:45;;;;;;;;;;;;;;;8.74;62.03;102860.94;5055236;28;20469;-75
2021/04/02 11:29:11;;;;;;;;;;;;;;;8.76;62.31;102855.00;5073220;28;19912;-74
2021/04/02 11:31:36;;;;;;;;;;;;;;;8.63;60.11;102850.81;5072732;28;20301;-75
2021/04/02 11:34:02;;;;;;;;;;;;;;;8.61;60.36;102848.16;5055236;28;19912;-75
2021/04/02 11:36:28;;;;;;;;;;;;;;;8.67;61.03;102843.41;5073058;28;19921;-74
2021/04/02 11:38:53;;;;;;;;;;;;;;;9.02;60.67;102831.91;5073076;28;20495;-73
2021/04/02 11:41:18;;;;;;;;;;;;;;;9.25;58.92;102843.56;5054641;28;19912;-74
2021/04/02 11:43:43;;;;;;;;;;;;;;;9.45;60.20;102839.66;5054925;28;19916;-75
2021/04/02 11:46:09;;;;;;;;;;;;;;;9.40;58.97;102836.78;5067554;28;19970;-74
2021/04/02 11:48:34;;;;;;;;;;;;;;;9.23;59.07;102835.78;5071086;28;19912;-75
2021/04/02 11:50:59;;;;;;;;;;;;;;;9.15;59.51;102837.00;5071961;28;19912;-75
2021/04/02 11:53:24;;;;;;;;;;;;;;;9.23;58.74;102833.22;5073783;28;19925;-74
2021/04/02 11:55:50;;;;;;;;;;;;;;;9.49;58.46;102828.78;5053071;28;19920;-73
2021/04/02 11:58:15;;;;;;;;;;;;;;;9.56;57.81;102828.34;5071824;28;20429;-75
2021/04/02 12:00:40;;;;;;;;;;;;;;;9.48;56.78;102830.47;5071474;28;19912;-75
2021/04/02 12:03:05;;;;;;;;;;;;;;;9.48;57.38;102830.47;5053978;28;19919;-75
2021/04/02 12:05:31;;;;;;;;;;;;;;;9.48;57.61;102832.16;5072502;28;19981;-75
2021/04/02 12:07:56;;;;;;;;;;;;;;;9.57;56.13;102831.00;5054524;28;19919;-74
2021/04/02 12:10:21;;;;;;;;;;;;;;;9.46;56.74;102836.31;5054060;28;19923;-73
2021/04/02 12:12:47;;;;;;;;;;;;;;;9.60;57.29;102828.63;5071957;28;19924;-75
2021/04/02 12:15:12;;;;;;;;;;;;;;;9.62;56.50;102823.56;5054793;28;20438;-75
2021/04/02 12:17:38;;;;;;;;;;;;;;;9.67;58.06;102823.06;5054325;28;20388;-75
2021/04/02 12:20:08;;;;;;;;;;;;;;;9.51;58.13;102819.50;5070855;28;19968;-75
2021/04/02 12:22:33;;;;;;;;;;;;;;;9.14;59.64;102837.81;5053972;28;20026;-74
2021/04/02 12:24:58;;;;;;;;;;;;;;;8.86;60.60;102834.31;5072128;28;19916;-74
2021/04/02 12:27:23;;;;;;;;;;;;;;;8.69;61.08;102826.44;5054427;28;19961;-75
2021/04/02 12:29:49;;;;;;;;;;;;;;;8.57;61.65;102835.03;5072024;28;19912;-75
2021/04/02 12:32:14;;;;;;;;;;;;;;;8.49;61.59;102832.00;5070889;28;20339;-74
2021/04/02 12:34:39;;;;;;;;;;;;;;;8.36;62.85;102831.97;5072353;28;20374;-74
2021/04/02 12:37:04;;;;;;;;;;;;;;;8.30;62.21;102827.31;5054041;28;19955;-74
2021/04/02 12:39:30;;;;;;;;;;;;;;;8.35;62.40;102820.84;5053692;28;19920;-75
2021/04/02 12:41:55;;;;;;;;;;;;;;;8.46;62.50;102826.69;5071492;28;19912;-74
2021/04/02 12:44:20;;;;;;;;;;;;;;;8.49;62.71;102821.75;5071502;28;19912;-74